Holly Ann — WDE9094 — position and weather

sailwx.info

Track history (hours):
 
Tides and Currents Weather Stations Pressure Air Temp Water Temp Dewpoint Dewpoint Depression Visibility Wind Speed Wind Dir Waves Ship Positions

Holly Ann

Owner: Manke Tug and Barge Co., Inc., Shelton, WA. More information available from US FCC via Universal Licensing System and Coast Guard Vessel Documentation Center.

Last reported at 2016-Jul-01 06:21 UTC. Time now 2016-Jul-01 08:18 UTC.
Position N 47°11' W 122°39'.

; draft 4.5 m.

Type: Towing. MMSI: 367413350.

Date/timePositionNaut miles runAvg speedWind from/ knotsBaromVisibWave heightAir tempDewpointWater temp
2016-Jul-01 06:21N 47°11' W 122°39'5 6.8
2016-Jul-01 05:33N 47°15' W 122°34'7 6.9
2016-Jul-01 04:33N 47°22' W 122°32'6 6.0
2016-Jul-01 03:33N 47°28' W 122°31'6 5.5
2016-Jul-01 02:33N 47°33' W 122°27'4 4.2
2016-Jul-01 01:33N 47°34' W 122°21'1 1.3
2016-Jul-01 00:33N 47°33' W 122°21'0 0.0
2016-Jun-30 23:33N 47°33' W 122°21'0 0.0
2016-Jun-30 22:33N 47°33' W 122°21'0 0.0
2016-Jun-30 21:33N 47°33' W 122°21'0 0.0
2016-Jun-30 20:33N 47°33' W 122°21'0 0.0
2016-Jun-30 19:33N 47°33' W 122°21'0 0.0
2016-Jun-30 18:34N 47°33' W 122°21'0 0.0
2016-Jun-30 17:33N 47°33' W 122°21'0 0.0
2016-Jun-30 16:33N 47°33' W 122°21'0 0.0
2016-Jun-30 15:33N 47°33' W 122°21'0 0.1
2016-Jun-30 14:33N 47°33' W 122°21'3 3.4
2016-Jun-30 13:33N 47°35' W 122°25'9 8.6
2016-Jun-30 12:33N 47°28' W 122°31'9 9.1
2016-Jun-30 11:31N 47°18' W 122°33'9 8.4
2016-Jun-30 10:29N 47°11' W 122°41'  
2016-Jun-26 03:23N 47°11' W 122°49'7 8.1
2016-Jun-26 02:33N 47°11' W 122°39'1110.7
2016-Jun-26 01:33N 47°21' W 122°33'9 9.2
2016-Jun-26 00:33N 47°30' W 122°29'7 6.9
2016-Jun-25 23:33N 47°35' W 122°22'1 1.4
2016-Jun-25 22:33N 47°33' W 122°21'0 0.0
2016-Jun-25 21:33N 47°33' W 122°21'0 0.0
2016-Jun-25 20:31N 47°33' W 122°21'0 0.0
2016-Jun-25 19:33N 47°33' W 122°21'0 0.0
2016-Jun-25 18:33N 47°33' W 122°21'0 0.0
2016-Jun-25 17:33N 47°33' W 122°21'0 0.0
2016-Jun-25 16:33N 47°33' W 122°21'0 0.0
2016-Jun-25 15:33N 47°33' W 122°21'0 0.0
2016-Jun-25 14:33N 47°33' W 122°21'0 0.0
2016-Jun-25 13:33N 47°33' W 122°21'0 0.4
2016-Jun-25 12:33N 47°33' W 122°20'0 0.4
2016-Jun-25 11:33N 47°33' W 122°21'3 2.6
2016-Jun-25 10:33N 47°36' W 122°22'7 7.2
2016-Jun-25 09:33N 47°30' W 122°29'9 8.8
2016-Jun-25 08:33N 47°22' W 122°32'9 9.5
2016-Jun-25 07:33N 47°13' W 122°36'8 7.6
2016-Jun-25 06:33N 47°10' W 122°47'  
2016-Jun-22 09:33N 47°14' W 122°35'6 6.0
2016-Jun-22 08:33N 47°19' W 122°33'6 5.6
2016-Jun-22 07:33N 47°25' W 122°32'5 5.4
2016-Jun-22 06:34N 47°30' W 122°29'6 6.0
2016-Jun-22 05:34N 47°35' W 122°25'3 2.9
2016-Jun-22 04:34N 47°34' W 122°21'0 0.0
2016-Jun-22 03:34N 47°34' W 122°21'0 0.0
2016-Jun-22 02:34N 47°34' W 122°21'0 0.0
2016-Jun-22 01:33N 47°34' W 122°21'0 0.0
2016-Jun-22 00:33N 47°34' W 122°21'1 1.2
2016-Jun-21 23:34N 47°35' W 122°21'0 0.0
2016-Jun-21 22:34N 47°35' W 122°21'1 1.2
2016-Jun-21 21:34N 47°34' W 122°21'1 0.7
2016-Jun-21 20:34N 47°33' W 122°21'0 0.0
2016-Jun-21 19:34N 47°33' W 122°21'0 0.0
2016-Jun-21 18:34N 47°33' W 122°21'1 0.7
2016-Jun-21 17:33N 47°34' W 122°21'0 0.0
2016-Jun-21 16:33N 47°34' W 122°21'0 0.0
2016-Jun-21 15:34N 47°34' W 122°21'0 0.0
2016-Jun-21 14:33N 47°34' W 122°21'0 0.0
2016-Jun-21 13:33N 47°34' W 122°21'0 0.0
2016-Jun-21 12:34N 47°34' W 122°21'0 0.0
2016-Jun-21 11:34N 47°34' W 122°21'0 0.0
2016-Jun-21 10:33N 47°34' W 122°21'0 0.1
2016-Jun-21 09:34N 47°34' W 122°21'3 2.8
2016-Jun-21 08:33N 47°35' W 122°25'7 7.0
2016-Jun-21 07:34N 47°29' W 122°30'7 7.4
2016-Jun-21 06:34N 47°22' W 122°32'  
Track history (hours):
 
Tides and Currents Weather Stations Pressure Air Temp Water Temp Dewpoint Dewpoint Depression Visibility Wind Speed Wind Dir Waves Ship Positions

Holly Ann

Owner: Manke Tug and Barge Co., Inc., Shelton, WA. More information available from US FCC via Universal Licensing System and Coast Guard Vessel Documentation Center.

Last reported at 2016-Jul-01 06:21 UTC. Time now 2016-Jul-01 08:18 UTC.
Position N 47°11' W 122°39'.

; draft 4.5 m.

Type: Towing. MMSI: 367413350.

Date/timePositionNaut miles runAvg speedWind from/ knotsBaromVisibWave heightAir tempDewpointWater temp
2016-Jul-01 06:21N 47°11' W 122°39'5 6.8
2016-Jul-01 05:33N 47°15' W 122°34'7 6.9
2016-Jul-01 04:33N 47°22' W 122°32'6 6.0
2016-Jul-01 03:33N 47°28' W 122°31'6 5.5
2016-Jul-01 02:33N 47°33' W 122°27'4 4.2
2016-Jul-01 01:33N 47°34' W 122°21'1 1.3
2016-Jul-01 00:33N 47°33' W 122°21'0 0.0
2016-Jun-30 23:33N 47°33' W 122°21'0 0.0
2016-Jun-30 22:33N 47°33' W 122°21'0 0.0
2016-Jun-30 21:33N 47°33' W 122°21'0 0.0
2016-Jun-30 20:33N 47°33' W 122°21'0 0.0
2016-Jun-30 19:33N 47°33' W 122°21'0 0.0
2016-Jun-30 18:34N 47°33' W 122°21'0 0.0
2016-Jun-30 17:33N 47°33' W 122°21'0 0.0
2016-Jun-30 16:33N 47°33' W 122°21'0 0.0
2016-Jun-30 15:33N 47°33' W 122°21'0 0.1
2016-Jun-30 14:33N 47°33' W 122°21'3 3.4
2016-Jun-30 13:33N 47°35' W 122°25'9 8.6
2016-Jun-30 12:33N 47°28' W 122°31'9 9.1
2016-Jun-30 11:31N 47°18' W 122°33'9 8.4
2016-Jun-30 10:29N 47°11' W 122°41'  
2016-Jun-26 03:23N 47°11' W 122°49'7 8.1
2016-Jun-26 02:33N 47°11' W 122°39'1110.7
2016-Jun-26 01:33N 47°21' W 122°33'9 9.2
2016-Jun-26 00:33N 47°30' W 122°29'7 6.9
2016-Jun-25 23:33N 47°35' W 122°22'1 1.4
2016-Jun-25 22:33N 47°33' W 122°21'0 0.0
2016-Jun-25 21:33N 47°33' W 122°21'0 0.0
2016-Jun-25 20:31N 47°33' W 122°21'0 0.0
2016-Jun-25 19:33N 47°33' W 122°21'0 0.0
2016-Jun-25 18:33N 47°33' W 122°21'0 0.0
2016-Jun-25 17:33N 47°33' W 122°21'0 0.0
2016-Jun-25 16:33N 47°33' W 122°21'0 0.0
2016-Jun-25 15:33N 47°33' W 122°21'0 0.0
2016-Jun-25 14:33N 47°33' W 122°21'0 0.0
2016-Jun-25 13:33N 47°33' W 122°21'0 0.4
2016-Jun-25 12:33N 47°33' W 122°20'0 0.4
2016-Jun-25 11:33N 47°33' W 122°21'3 2.6
2016-Jun-25 10:33N 47°36' W 122°22'7 7.2
2016-Jun-25 09:33N 47°30' W 122°29'9 8.8
2016-Jun-25 08:33N 47°22' W 122°32'9 9.5
2016-Jun-25 07:33N 47°13' W 122°36'8 7.6
2016-Jun-25 06:33N 47°10' W 122°47'  
2016-Jun-22 09:33N 47°14' W 122°35'6 6.0
2016-Jun-22 08:33N 47°19' W 122°33'6 5.6
2016-Jun-22 07:33N 47°25' W 122°32'5 5.4
2016-Jun-22 06:34N 47°30' W 122°29'6 6.0
2016-Jun-22 05:34N 47°35' W 122°25'3 2.9
2016-Jun-22 04:34N 47°34' W 122°21'0 0.0
2016-Jun-22 03:34N 47°34' W 122°21'0 0.0
2016-Jun-22 02:34N 47°34' W 122°21'0 0.0
2016-Jun-22 01:33N 47°34' W 122°21'0 0.0
2016-Jun-22 00:33N 47°34' W 122°21'1 1.2
2016-Jun-21 23:34N 47°35' W 122°21'0 0.0
2016-Jun-21 22:34N 47°35' W 122°21'1 1.2
2016-Jun-21 21:34N 47°34' W 122°21'1 0.7
2016-Jun-21 20:34N 47°33' W 122°21'0 0.0
2016-Jun-21 19:34N 47°33' W 122°21'0 0.0
2016-Jun-21 18:34N 47°33' W 122°21'1 0.7
2016-Jun-21 17:33N 47°34' W 122°21'0 0.0
2016-Jun-21 16:33N 47°34' W 122°21'0 0.0
2016-Jun-21 15:34N 47°34' W 122°21'0 0.0
2016-Jun-21 14:33N 47°34' W 122°21'0 0.0
2016-Jun-21 13:33N 47°34' W 122°21'0 0.0
2016-Jun-21 12:34N 47°34' W 122°21'0 0.0
2016-Jun-21 11:34N 47°34' W 122°21'0 0.0
2016-Jun-21 10:33N 47°34' W 122°21'0 0.1
2016-Jun-21 09:34N 47°34' W 122°21'3 2.8
2016-Jun-21 08:33N 47°35' W 122°25'7 7.0
2016-Jun-21 07:34N 47°29' W 122°30'7 7.4
2016-Jun-21 06:34N 47°22' W 122°32'  

Dump ship's entire track history